createdAt,value
2018-11-04T00:00:23.482Z,54.80
2018-11-04T00:02:55.296Z,52.30
2018-11-04T00:05:27.144Z,55.60
2018-11-04T00:07:59.065Z,54.20
2018-11-04T00:10:30.837Z,59.20
2018-11-04T00:13:02.717Z,54.90
2018-11-04T00:15:34.514Z,51.10
2018-11-04T00:18:06.543Z,59.27
2018-11-04T00:20:40.131Z,54.87
2018-11-04T00:23:11.921Z,54.73
2018-11-04T00:25:43.835Z,60.00
2018-11-04T00:28:15.894Z,47.50
2018-11-04T00:30:47.771Z,55.40
2018-11-04T00:33:19.612Z,52.30
2018-11-04T00:35:51.437Z,63.03
2018-11-04T00:38:23.259Z,49.80
2018-11-04T00:40:55.103Z,50.47
2018-11-04T00:43:26.935Z,54.33
2018-11-04T00:45:58.760Z,51.27
2018-11-04T00:48:30.622Z,50.47
2018-11-04T00:51:02.396Z,58.30
2018-11-04T00:53:35.773Z,56.60
2018-11-04T00:56:06.058Z,53.67
2018-11-04T00:58:39.784Z,59.00
2018-11-04T01:01:09.692Z,49.93
2018-11-04T01:03:41.490Z,58.93
2018-11-04T01:06:13.333Z,47.57
2018-11-04T01:08:45.150Z,50.53
2018-11-04T01:11:17.015Z,51.77
2018-11-04T01:13:48.809Z,59.60
2018-11-04T01:16:20.630Z,56.53
2018-11-04T01:18:52.436Z,59.87
2018-11-04T01:21:24.269Z,55.73
2018-11-04T01:23:56.126Z,52.13
2018-11-04T01:26:27.957Z,51.43
2018-11-04T01:28:59.767Z,50.33
2018-11-04T01:31:31.609Z,48.07
2018-11-04T01:34:03.785Z,47.57
2018-11-04T01:36:38.342Z,54.57
2018-11-04T01:39:11.311Z,50.13
2018-11-04T01:41:43.162Z,53.60
2018-11-04T01:44:14.960Z,54.90
2018-11-04T01:46:46.786Z,52.77
2018-11-04T01:49:18.572Z,58.27
2018-11-04T01:51:50.398Z,51.63
2018-11-04T01:54:25.241Z,51.60
2018-11-04T01:56:57.097Z,48.37
2018-11-04T01:59:28.936Z,52.23
2018-11-04T02:02:00.777Z,48.60
2018-11-04T02:04:33.068Z,51.53
2018-11-04T02:07:04.895Z,48.37
2018-11-04T02:09:36.702Z,49.73
2018-11-04T02:12:08.833Z,54.77
2018-11-04T02:14:40.644Z,46.07
2018-11-04T02:17:12.476Z,54.03
2018-11-04T02:19:46.483Z,47.17
2018-11-04T02:22:16.134Z,53.93
2018-11-04T02:24:47.948Z,51.07
2018-11-04T02:27:19.828Z,46.83
2018-11-04T02:29:53.754Z,46.13
2018-11-04T02:32:25.639Z,50.37
2018-11-04T02:34:57.441Z,60.13
2018-11-04T02:37:29.272Z,49.77
2018-11-04T02:40:01.154Z,52.10
2018-11-04T02:42:32.987Z,54.73
2018-11-04T02:45:05.432Z,55.03
2018-11-04T02:47:37.664Z,54.53
2018-11-04T02:50:10.939Z,49.07
2018-11-04T02:52:42.756Z,49.60
2018-11-04T02:55:14.581Z,48.00
2018-11-04T02:57:46.406Z,57.00
2018-11-04T03:00:18.195Z,59.77
2018-11-04T03:02:50.029Z,59.20
2018-11-04T03:05:21.833Z,57.57
2018-11-04T03:07:53.696Z,58.70
2018-11-04T03:10:25.508Z,53.10
2018-11-04T03:12:57.349Z,56.03
2018-11-04T03:15:29.131Z,51.10
2018-11-04T03:18:00.977Z,58.20
2018-11-04T03:20:32.789Z,56.67
2018-11-04T03:23:04.756Z,52.00
2018-11-04T03:25:36.559Z,50.13
2018-11-04T03:28:09.939Z,52.10
2018-11-04T03:30:41.739Z,52.40
2018-11-04T03:33:13.614Z,51.70
2018-11-04T03:35:45.425Z,54.40
2018-11-04T03:38:17.233Z,45.83
2018-11-04T03:40:49.055Z,58.83
2018-11-04T03:43:20.903Z,52.77
2018-11-04T03:45:52.717Z,53.73
2018-11-04T03:48:24.543Z,54.70
2018-11-04T03:50:56.362Z,58.03
2018-11-04T03:53:28.187Z,60.27
2018-11-04T03:56:00.014Z,51.67
2018-11-04T03:58:31.829Z,55.40
2018-11-04T04:01:03.660Z,54.60
2018-11-04T04:03:35.474Z,46.37
2018-11-04T04:06:07.521Z,53.40
2018-11-04T04:08:39.334Z,53.23
2018-11-04T04:11:11.139Z,55.97
2018-11-04T04:13:42.972Z,47.90
2018-11-04T04:16:14.780Z,58.63
2018-11-04T04:18:46.585Z,59.47
2018-11-04T04:21:18.400Z,56.30
2018-11-04T04:23:50.208Z,53.77
2018-11-04T04:26:22.077Z,48.40
2018-11-04T04:28:53.936Z,51.77
2018-11-04T04:31:25.738Z,56.00
2018-11-04T04:33:57.557Z,59.33
2018-11-04T04:36:29.371Z,53.20
2018-11-04T04:39:01.211Z,48.37
2018-11-04T04:41:33.543Z,52.50
2018-11-04T04:44:05.504Z,52.13
2018-11-04T04:46:37.310Z,56.13
2018-11-04T04:49:09.220Z,56.87
2018-11-04T04:51:41.537Z,56.37
2018-11-04T04:54:13.561Z,54.30
2018-11-04T04:56:45.377Z,59.43
2018-11-04T04:59:17.217Z,59.57
2018-11-04T05:01:49.037Z,53.60
2018-11-04T05:04:22.502Z,63.27
2018-11-04T05:06:54.319Z,58.17
2018-11-04T05:09:26.172Z,67.20
2018-11-04T05:12:00.885Z,62.63
2018-11-04T05:14:32.716Z,56.97
2018-11-04T05:17:04.548Z,60.03
2018-11-04T05:19:36.871Z,63.87
2018-11-04T05:22:09.147Z,54.67
2018-11-04T05:24:40.939Z,57.50
2018-11-04T05:27:12.745Z,61.83
2018-11-04T05:29:44.590Z,58.60
2018-11-04T05:32:16.389Z,60.63
2018-11-04T05:34:48.226Z,54.30
2018-11-04T05:37:20.063Z,55.50
2018-11-04T05:39:51.895Z,56.53
2018-11-04T05:42:23.711Z,57.27
2018-11-04T05:44:55.541Z,56.50
2018-11-04T05:47:27.348Z,62.13
2018-11-04T05:50:02.069Z,50.37
2018-11-04T05:52:33.876Z,57.07
2018-11-04T05:55:07.145Z,56.17
2018-11-04T05:57:39.180Z,58.17
2018-11-04T06:00:12.176Z,56.67
2018-11-04T06:02:43.981Z,56.07
2018-11-04T06:05:15.794Z,49.77
2018-11-04T06:07:47.604Z,54.60
2018-11-04T06:10:19.461Z,56.13
2018-11-04T06:12:51.291Z,50.63
2018-11-04T06:15:23.126Z,51.17
2018-11-04T06:17:54.935Z,60.07
2018-11-04T06:20:26.757Z,64.43
2018-11-04T06:22:58.540Z,56.23
2018-11-04T06:25:30.364Z,62.83
2018-11-04T06:28:04.722Z,57.20
2018-11-04T06:30:36.564Z,61.00
2018-11-04T06:33:08.457Z,51.97
2018-11-04T06:35:40.805Z,50.80
2018-11-04T06:38:12.660Z,53.87
2018-11-04T06:40:44.494Z,54.77
2018-11-04T06:43:16.450Z,58.47
2018-11-04T06:45:48.320Z,55.70
2018-11-04T06:48:20.142Z,51.37
2018-11-04T06:50:51.992Z,51.13
2018-11-04T06:53:24.245Z,66.83
2018-11-04T06:55:56.057Z,54.93
2018-11-04T06:58:27.860Z,54.33
2018-11-04T07:00:59.658Z,63.90
2018-11-04T07:03:31.475Z,55.97
2018-11-04T07:06:03.290Z,50.63
2018-11-04T07:08:35.084Z,58.53
2018-11-04T07:11:06.942Z,50.90
2018-11-04T07:13:38.718Z,54.00
2018-11-04T07:16:10.542Z,56.03
2018-11-04T07:18:42.453Z,61.87
2018-11-04T07:21:14.252Z,55.90
2018-11-04T07:23:46.110Z,55.10
2018-11-04T07:26:18.440Z,57.73
2018-11-04T07:28:50.242Z,65.57
2018-11-04T07:31:22.110Z,59.03
2018-11-04T07:33:54.123Z,56.43
2018-11-04T07:36:25.970Z,56.23
2018-11-04T07:38:57.772Z,55.33
2018-11-04T07:41:29.605Z,61.47
2018-11-04T07:44:04.126Z,56.40
2018-11-04T07:46:35.937Z,56.00
2018-11-04T07:49:08.023Z,64.37
2018-11-04T07:51:39.983Z,55.70
2018-11-04T07:54:11.699Z,63.47
2018-11-04T07:56:45.776Z,63.60
2018-11-04T07:59:17.604Z,67.77
2018-11-04T08:01:49.456Z,65.37
2018-11-04T08:04:21.300Z,55.67
2018-11-04T08:06:53.109Z,65.50
2018-11-04T08:09:24.920Z,58.30
2018-11-04T08:11:56.761Z,56.93
2018-11-04T08:14:28.594Z,65.10
2018-11-04T08:17:00.444Z,68.50
2018-11-04T08:19:32.289Z,56.83
2018-11-04T08:22:04.115Z,63.03
2018-11-04T08:24:35.940Z,54.07
2018-11-04T08:27:07.999Z,56.10
2018-11-04T08:29:39.857Z,60.83
2018-11-04T08:32:11.665Z,57.37
2018-11-04T08:34:43.489Z,55.30
2018-11-04T08:37:15.469Z,61.20
2018-11-04T08:39:47.440Z,55.83
2018-11-04T08:42:19.252Z,56.60
2018-11-04T08:44:51.057Z,66.47
2018-11-04T08:47:22.888Z,67.03
2018-11-04T08:49:54.804Z,57.77
2018-11-04T08:52:26.569Z,57.87
2018-11-04T08:54:58.540Z,63.00
2018-11-04T08:57:30.379Z,53.90
2018-11-04T09:00:02.263Z,61.80
2018-11-04T09:02:34.024Z,60.93
2018-11-04T09:05:06.368Z,59.70
2018-11-04T09:07:38.206Z,53.80
2018-11-04T09:10:15.630Z,51.73
2018-11-04T09:12:47.519Z,57.30
2018-11-04T09:15:19.354Z,52.43
2018-11-04T09:17:51.182Z,51.20
2018-11-04T09:20:23.007Z,53.20
2018-11-04T09:22:55.337Z,48.27
2018-11-04T09:25:27.200Z,49.90
2018-11-04T09:27:59.037Z,46.27
2018-11-04T09:30:30.890Z,48.73
2018-11-04T09:33:02.722Z,49.27
2018-11-04T09:35:34.659Z,51.80
2018-11-04T09:38:06.579Z,45.73
2018-11-04T09:40:38.737Z,46.80
2018-11-04T09:43:10.567Z,45.53
2018-11-04T09:45:42.402Z,47.87
2018-11-04T09:48:16.361Z,53.03
2018-11-04T09:50:46.516Z,48.93
2018-11-04T09:53:18.358Z,54.87
2018-11-04T09:55:50.262Z,58.07
2018-11-04T09:58:22.091Z,56.70
2018-11-04T10:00:53.900Z,49.13
2018-11-04T10:03:25.766Z,55.73
2018-11-04T10:05:57.610Z,52.83
2018-11-04T10:08:29.424Z,54.30
2018-11-04T10:11:01.280Z,54.20
2018-11-04T10:13:33.201Z,53.13
2018-11-04T10:16:05.298Z,58.73
2018-11-04T10:18:37.330Z,52.93
2018-11-04T10:21:09.747Z,56.97
2018-11-04T10:23:41.014Z,59.60
2018-11-04T10:26:12.852Z,54.23
2018-11-04T10:28:44.690Z,58.70
2018-11-04T10:31:16.561Z,55.37
2018-11-04T10:33:50.830Z,58.50
2018-11-04T10:36:20.296Z,53.67
2018-11-04T10:38:52.459Z,50.03
2018-11-04T10:41:24.310Z,54.77
2018-11-04T10:43:56.124Z,55.33
2018-11-04T10:46:27.935Z,56.50
2018-11-04T10:49:01.682Z,59.07
2018-11-04T10:51:33.518Z,53.90
2018-11-04T10:54:05.367Z,55.17
2018-11-04T10:56:37.294Z,51.10
2018-11-04T10:59:09.238Z,53.10
2018-11-04T11:01:41.068Z,52.87
2018-11-04T11:04:12.922Z,56.87
2018-11-04T11:06:44.787Z,49.13
2018-11-04T11:09:17.730Z,47.73
2018-11-04T11:11:49.554Z,49.47
2018-11-04T11:14:21.423Z,44.77
2018-11-04T11:16:53.432Z,45.17
2018-11-04T11:19:25.592Z,49.40
2018-11-04T11:22:00.142Z,51.10
2018-11-04T11:24:32.629Z,48.33
2018-11-04T11:27:04.489Z,49.63
2018-11-04T11:29:36.368Z,51.17
2018-11-04T11:32:08.360Z,53.43
2018-11-04T11:34:40.414Z,47.80
2018-11-04T11:37:12.608Z,48.23
2018-11-04T11:39:44.741Z,44.73
2018-11-04T11:42:16.667Z,41.63
2018-11-04T11:44:50.217Z,46.03
2018-11-04T11:47:23.919Z,40.70
2018-11-04T11:49:56.024Z,48.20
2018-11-04T11:52:27.883Z,45.10
2018-11-04T11:54:59.760Z,45.80
2018-11-04T11:57:31.605Z,42.17
2018-11-04T12:00:03.453Z,44.93
2018-11-04T12:02:35.284Z,40.70
2018-11-04T12:05:07.405Z,43.07
2018-11-04T12:07:39.498Z,45.10
2018-11-04T12:10:13.530Z,47.70
2018-11-04T12:12:45.353Z,47.70
2018-11-04T12:15:17.236Z,47.23
2018-11-04T12:17:49.093Z,45.33
2018-11-04T12:20:20.891Z,46.23
2018-11-04T12:22:52.673Z,50.63
2018-11-04T12:25:24.556Z,45.40
2018-11-04T12:27:56.387Z,44.73
2018-11-04T12:30:28.217Z,47.80
2018-11-04T12:33:02.817Z,43.93
2018-11-04T12:35:34.706Z,52.07
2018-11-04T12:38:08.679Z,48.80
2018-11-04T12:40:38.657Z,51.70
2018-11-04T12:43:10.569Z,48.80
2018-11-04T12:45:42.499Z,45.97
2018-11-04T12:48:14.263Z,45.10
2018-11-04T12:50:46.249Z,39.53
2018-11-04T12:53:18.063Z,42.60
2018-11-04T12:55:52.620Z,44.63
2018-11-04T12:58:24.513Z,39.40
2018-11-04T13:00:56.356Z,38.97
2018-11-04T13:03:29.001Z,39.97
2018-11-04T13:06:00.838Z,45.30
2018-11-04T13:08:32.673Z,36.30
2018-11-04T13:11:04.555Z,40.30
2018-11-04T13:13:36.380Z,41.27
2018-11-04T13:16:08.318Z,43.57
2018-11-04T13:18:40.188Z,42.37
2018-11-04T13:21:12.135Z,42.43
2018-11-04T13:23:43.924Z,44.77
2018-11-04T13:26:15.960Z,38.60
2018-11-04T13:28:47.763Z,44.00
2018-11-04T13:31:19.793Z,44.70
2018-11-04T13:33:51.635Z,40.20
2018-11-04T13:36:23.469Z,42.30
2018-11-04T13:38:55.286Z,41.53
2018-11-04T13:41:27.245Z,41.33
2018-11-04T13:43:59.112Z,40.13
2018-11-04T13:46:31.019Z,49.07
2018-11-04T13:49:02.902Z,42.37
2018-11-04T13:51:34.812Z,41.83
2018-11-04T13:54:06.730Z,35.87
2018-11-04T13:56:38.578Z,40.23
2018-11-04T13:59:10.436Z,34.97
2018-11-04T14:01:42.419Z,42.37
2018-11-04T14:04:14.261Z,37.90
2018-11-04T14:06:46.164Z,44.93
2018-11-04T14:09:18.025Z,42.73
2018-11-04T14:11:49.943Z,47.40
2018-11-04T14:14:21.822Z,39.13
2018-11-04T14:16:53.713Z,40.50
2018-11-04T14:19:25.560Z,46.27
2018-11-04T14:21:57.436Z,41.23
2018-11-04T14:24:29.390Z,51.27
2018-11-04T14:27:01.247Z,42.20
2018-11-04T14:29:33.069Z,37.83
2018-11-04T14:32:04.919Z,44.37
2018-11-04T14:34:36.777Z,41.90
2018-11-04T14:37:08.776Z,45.20
2018-11-04T14:39:40.509Z,38.20
2018-11-04T14:42:12.398Z,39.60
2018-11-04T14:44:44.477Z,33.30
2018-11-04T14:47:16.346Z,37.93
2018-11-04T14:49:48.202Z,43.60
2018-11-04T14:52:20.171Z,42.43
2018-11-04T14:54:51.910Z,38.57
2018-11-04T14:57:23.837Z,38.90
2018-11-04T14:59:55.738Z,40.00
2018-11-04T15:02:27.545Z,37.20
2018-11-04T15:05:02.021Z,37.50
2018-11-04T15:07:33.895Z,37.90
2018-11-04T15:10:06.219Z,42.17
2018-11-04T15:12:38.221Z,40.53
2018-11-04T15:15:15.554Z,42.60
2018-11-04T15:17:47.394Z,43.93
2018-11-04T15:20:19.235Z,39.50
2018-11-04T15:22:52.146Z,37.80
2018-11-04T15:25:26.321Z,43.70
2018-11-04T15:27:58.193Z,42.33
2018-11-04T15:30:30.026Z,35.10
2018-11-04T15:33:01.895Z,40.57
2018-11-04T15:35:33.767Z,43.83
2018-11-04T15:38:05.714Z,39.80
2018-11-04T15:40:37.649Z,36.20
2018-11-04T15:43:09.463Z,37.70
2018-11-04T15:45:41.331Z,43.30
2018-11-04T15:48:15.341Z,47.43
2018-11-04T15:50:47.232Z,43.10
2018-11-04T15:53:21.827Z,48.60
2018-11-04T15:55:53.777Z,39.40
2018-11-04T15:58:25.640Z,39.87
2018-11-04T16:00:57.487Z,46.57
2018-11-04T16:03:29.375Z,45.43
2018-11-04T16:06:01.234Z,43.10
2018-11-04T16:08:33.067Z,41.03
2018-11-04T16:11:04.899Z,45.27
2018-11-04T16:13:36.762Z,44.37
2018-11-04T16:16:08.950Z,43.03
2018-11-04T16:18:40.864Z,51.00
2018-11-04T16:21:12.645Z,42.70
2018-11-04T16:23:47.049Z,45.93
2018-11-04T16:26:19.112Z,48.50
2018-11-04T16:28:53.090Z,52.23
2018-11-04T16:31:24.962Z,46.63
2018-11-04T16:33:56.853Z,54.47
2018-11-04T16:36:28.724Z,55.67
2018-11-04T16:39:00.677Z,58.63
2018-11-04T16:41:32.511Z,48.90
2018-11-04T16:44:04.497Z,46.20
2018-11-04T16:46:36.234Z,51.13
2018-11-04T16:49:08.845Z,43.90
2018-11-04T16:51:40.738Z,43.37
2018-11-04T16:54:12.637Z,40.77
2018-11-04T16:56:44.572Z,44.07
2018-11-04T16:59:16.424Z,42.03
2018-11-04T17:01:48.270Z,45.87
2018-11-04T17:04:20.257Z,42.60
2018-11-04T17:06:51.929Z,42.20
2018-11-04T17:09:24.059Z,42.57
2018-11-04T17:11:55.985Z,45.03
2018-11-04T17:14:28.005Z,38.87
2018-11-04T17:16:59.841Z,38.83
2018-11-04T17:19:31.726Z,44.73
2018-11-04T17:22:03.763Z,44.73
2018-11-04T17:24:35.650Z,45.83
2018-11-04T17:27:07.709Z,43.07
2018-11-04T17:29:39.593Z,43.97
2018-11-04T17:32:11.490Z,49.83
2018-11-04T17:34:43.334Z,49.83
2018-11-04T17:37:15.174Z,43.07
2018-11-04T17:39:47.062Z,46.37
2018-11-04T17:42:18.907Z,51.27
2018-11-04T17:44:50.879Z,39.60
2018-11-04T17:47:22.581Z,47.93
2018-11-04T17:49:54.417Z,44.10
2018-11-04T17:52:26.334Z,45.43
2018-11-04T17:54:58.202Z,49.17
2018-11-04T17:57:30.080Z,41.27
2018-11-04T18:00:02.032Z,43.37
2018-11-04T18:02:33.865Z,41.83
2018-11-04T18:05:05.944Z,54.43
2018-11-04T18:07:37.691Z,40.00
2018-11-04T18:10:09.868Z,46.80
2018-11-04T18:12:41.917Z,37.30
2018-11-04T18:15:14.505Z,51.47
2018-11-04T18:17:46.380Z,40.90
2018-11-04T18:20:18.276Z,43.10
2018-11-04T18:22:50.204Z,41.30
2018-11-04T18:25:21.951Z,44.70
2018-11-04T18:27:53.787Z,41.50
2018-11-04T18:30:25.748Z,43.40
2018-11-04T18:32:57.664Z,35.47
2018-11-04T18:35:29.575Z,38.37
2018-11-04T18:38:01.400Z,41.17
2018-11-04T18:40:33.226Z,42.90
2018-11-04T18:43:05.058Z,44.67
2018-11-04T18:45:36.942Z,38.50
2018-11-04T18:48:08.954Z,36.23
2018-11-04T18:50:40.952Z,39.23
2018-11-04T18:53:12.674Z,45.50
2018-11-04T18:55:44.628Z,45.30
2018-11-04T18:58:16.441Z,38.80
2018-11-04T19:00:48.379Z,42.27
2018-11-04T19:03:20.210Z,42.03
2018-11-04T19:05:52.052Z,35.37
2018-11-04T19:08:23.877Z,41.13
2018-11-04T19:10:55.766Z,44.13
2018-11-04T19:13:27.582Z,38.53
2018-11-04T19:15:59.447Z,45.13
2018-11-04T19:18:31.276Z,38.07
2018-11-04T19:21:03.181Z,50.40
2018-11-04T19:23:35.055Z,42.47
2018-11-04T19:26:09.857Z,36.67
2018-11-04T19:28:41.738Z,43.40
2018-11-04T19:31:13.642Z,47.47
2018-11-04T19:33:45.459Z,42.00
2018-11-04T19:36:17.353Z,41.47
2018-11-04T19:38:49.187Z,39.10
2018-11-04T19:41:21.073Z,39.57
2018-11-04T19:43:52.908Z,47.30
2018-11-04T19:46:24.786Z,44.57
2018-11-04T19:48:56.780Z,46.00
2018-11-04T19:51:28.634Z,48.93
2018-11-04T19:54:00.465Z,46.70
2018-11-04T19:56:32.383Z,45.67
2018-11-04T19:59:04.175Z,52.13
2018-11-04T20:01:35.969Z,49.60
2018-11-04T20:04:07.958Z,44.17
2018-11-04T20:06:39.828Z,41.47
2018-11-04T20:09:16.146Z,45.63
2018-11-04T20:11:48.045Z,49.97
2018-11-04T20:14:23.561Z,43.87
2018-11-04T20:16:55.612Z,45.17
2018-11-04T20:19:44.407Z,53.27
2018-11-04T20:22:16.241Z,50.17
2018-11-04T20:25:07.351Z,43.23
2018-11-04T20:27:39.296Z,47.73
2018-11-04T20:30:12.661Z,43.50
2018-11-04T20:33:03.547Z,41.87
2018-11-04T20:35:35.397Z,38.70
2018-11-04T20:38:10.068Z,43.00
2018-11-04T20:40:59.260Z,50.00
2018-11-04T20:43:31.097Z,44.40
2018-11-04T20:46:02.962Z,47.40
2018-11-04T20:48:52.079Z,49.00
2018-11-04T20:51:23.910Z,50.00
2018-11-04T20:53:55.751Z,57.73
2018-11-04T20:56:44.842Z,55.70
2018-11-04T20:59:16.708Z,47.80
2018-11-04T21:01:48.620Z,44.17
2018-11-04T21:04:20.423Z,52.13
2018-11-04T21:06:52.269Z,52.43
2018-11-04T21:09:24.083Z,51.77
2018-11-04T21:11:55.972Z,54.53
2018-11-04T21:14:27.956Z,59.27
2018-11-04T21:16:59.828Z,52.63
2018-11-04T21:19:31.799Z,74.20
2018-11-04T21:22:03.636Z,55.27
2018-11-04T21:24:35.477Z,51.10
2018-11-04T21:27:07.999Z,54.93
2018-11-04T21:29:40.099Z,56.77
2018-11-04T21:32:11.678Z,68.13
2018-11-04T21:34:43.555Z,48.17
2018-11-04T21:37:15.381Z,53.57
2018-11-04T21:39:47.253Z,50.37
2018-11-04T21:42:19.251Z,54.57
2018-11-04T21:44:51.055Z,45.40
2018-11-04T21:47:22.810Z,52.30
2018-11-04T21:49:54.631Z,52.23
2018-11-04T21:52:26.479Z,48.63
2018-11-04T21:54:58.308Z,53.73
2018-11-04T21:57:30.213Z,61.83
2018-11-04T22:00:01.957Z,58.57
2018-11-04T22:02:33.847Z,53.63
2018-11-04T22:05:05.856Z,46.87
2018-11-04T22:07:37.657Z,55.80
2018-11-04T22:10:13.124Z,57.03
2018-11-04T22:12:44.961Z,48.33
2018-11-04T22:15:16.893Z,39.73
2018-11-04T22:17:48.729Z,56.17
2018-11-04T22:20:20.536Z,48.30
2018-11-04T22:22:52.335Z,53.57
2018-11-04T22:25:24.196Z,51.37
2018-11-04T22:27:56.043Z,47.40
2018-11-04T22:30:27.921Z,44.63
2018-11-04T22:32:59.747Z,48.77
2018-11-04T22:35:31.592Z,49.97
2018-11-04T22:38:03.468Z,41.47
2018-11-04T22:40:35.354Z,61.80
2018-11-04T22:43:07.145Z,45.77
2018-11-04T22:45:38.957Z,56.53
2018-11-04T22:48:10.761Z,58.50
2018-11-04T22:50:42.571Z,48.03
2018-11-04T22:53:14.364Z,54.03
2018-11-04T22:55:46.240Z,46.50
2018-11-04T22:58:18.007Z,50.23
2018-11-04T23:01:03.602Z,43.73
2018-11-04T23:03:35.437Z,44.20
2018-11-04T23:06:08.348Z,39.33
2018-11-04T23:08:40.175Z,43.20
2018-11-04T23:11:12.011Z,40.63
2018-11-04T23:13:43.922Z,42.60
2018-11-04T23:16:15.663Z,39.17
2018-11-04T23:18:47.833Z,50.77
2018-11-04T23:21:19.570Z,39.70
2018-11-04T23:23:51.368Z,39.27
2018-11-04T23:26:23.194Z,41.03
2018-11-04T23:28:55.055Z,52.30
2018-11-04T23:31:26.947Z,48.93
2018-11-04T23:33:58.709Z,38.57
2018-11-04T23:36:30.542Z,56.00
2018-11-04T23:39:02.347Z,37.03
2018-11-04T23:41:34.194Z,37.63
2018-11-04T23:44:06.027Z,38.30
2018-11-04T23:46:37.834Z,47.47
2018-11-04T23:49:09.690Z,36.43
2018-11-04T23:51:41.497Z,46.77
2018-11-04T23:54:13.630Z,44.13
2018-11-04T23:56:47.248Z,38.10
2018-11-04T23:59:19.092Z,34.47
